Dallas, Texas
Traffic Map
Current Weather Conditions
Dallas, Texas
Broken Clouds
Broken Clouds
31°
Feels Like: 20°
Wind Chill: 20° Ceiling: 12000
Heat Index: 31° Visibility: 10mi
Dew Point: 10° Wind: 16mph
Humidity: 42% Direction: 20° (NNE)
Pressure: 30.43in Gusts: 22mph
Raw Report DataKDAL 270553Z 02014G19KT 10SM FEW080 BKN120 M01/M12 A3043 RMK AO2 SLP308 T10061122 10022 21006 400391006 50009
Traffic Incident Summary
Active as of:
Severity:
Category:
InformationThere was an issue retrieving the traffic information for this location. Please try a different location or try again shortly.
Advertisements
Track Severe Weather on mobile